createdAt,value
2022-11-24T00:01:19.905Z,98875.03
2022-11-24T00:03:53.396Z,98881.13
2022-11-24T00:06:20.478Z,98874.06
2022-11-24T00:08:47.941Z,98865.59
2022-11-24T00:11:20.280Z,98861.19
2022-11-24T00:13:47.778Z,98859.47
2022-11-24T00:16:20.334Z,98860.22
2022-11-24T00:18:49.274Z,98861.91
2022-11-24T00:21:17.952Z,98867.44
2022-11-24T00:23:45.547Z,98860.41
2022-11-24T00:26:15.288Z,98858.91
2022-11-24T00:28:43.643Z,98860.63
2022-11-24T00:31:20.102Z,98865.50
2022-11-24T00:33:49.984Z,98856.00
2022-11-24T00:36:18.429Z,98861.44
2022-11-24T00:38:46.401Z,98846.09
2022-11-24T00:41:14.221Z,98851.91
2022-11-24T00:43:41.350Z,98847.31
2022-11-24T00:46:08.693Z,98846.66
2022-11-24T00:48:36.047Z,98847.41
2022-11-24T00:51:09.080Z,98840.41
2022-11-24T00:53:36.423Z,98843.59
2022-11-24T00:56:04.316Z,98843.59
2022-11-24T00:58:32.348Z,98838.72
2022-11-24T01:01:12.934Z,98837.28
2022-11-24T01:03:40.212Z,98840.41
2022-11-24T01:06:15.892Z,98829.97
2022-11-24T01:08:43.671Z,98829.50
2022-11-24T01:11:19.543Z,98825.84
2022-11-24T01:13:48.619Z,98822.91
2022-11-24T01:16:30.372Z,98818.53
2022-11-24T01:18:58.037Z,98820.97
2022-11-24T01:21:25.389Z,98828.19
2022-11-24T01:23:52.485Z,98829.88
2022-11-24T01:26:21.679Z,98824.72
2022-11-24T01:28:56.424Z,98822.81
2022-11-24T01:31:24.304Z,98823.78
2022-11-24T01:33:51.773Z,98821.38
2022-11-24T01:36:19.310Z,98820.84
2022-11-24T01:38:46.433Z,98821.06
2022-11-24T01:41:22.084Z,98824.69
2022-11-24T01:43:49.983Z,98816.47
2022-11-24T01:46:58.438Z,98811.63
2022-11-24T01:49:33.140Z,98814.03
2022-11-24T01:52:08.940Z,98804.81
2022-11-24T01:54:44.317Z,98800.38
2022-11-24T01:57:20.551Z,98803.28
2022-11-24T01:59:51.679Z,98809.56
2022-11-24T02:02:19.947Z,98811.03
2022-11-24T02:04:48.432Z,98802.06
2022-11-24T02:07:16.092Z,98805.47
2022-11-24T02:09:50.954Z,98801.63
2022-11-24T02:12:18.063Z,98800.16
2022-11-24T02:14:46.436Z,98803.78
2022-11-24T02:17:13.699Z,98797.22
2022-11-24T02:19:40.668Z,98799.91
2022-11-24T02:22:25.324Z,98801.63
2022-11-24T02:25:24.304Z,98790.25
2022-11-24T02:27:54.258Z,98789.31
2022-11-24T02:30:21.854Z,98795.88
2022-11-24T02:32:48.984Z,98791.50
2022-11-24T02:35:16.136Z,98785.66
2022-11-24T02:37:43.150Z,98774.75
2022-11-24T02:40:10.796Z,98774.75
2022-11-24T02:42:43.362Z,98767.94
2022-11-24T02:45:12.211Z,98788.34
2022-11-24T02:47:39.225Z,98782.56
2022-11-24T02:50:06.835Z,98776.28
2022-11-24T02:52:33.899Z,98776.03
2022-11-24T02:55:00.937Z,98774.34
2022-11-24T02:57:28.069Z,98765.13
2022-11-24T02:59:55.071Z,98768.06
2022-11-24T03:02:22.345Z,98762.72
2022-11-24T03:04:49.596Z,98756.88
2022-11-24T03:07:16.670Z,98762.97
2022-11-24T03:09:43.849Z,98758.13
2022-11-24T03:12:10.950Z,98761.25
2022-11-24T03:14:38.079Z,98753.50
2022-11-24T03:17:05.202Z,98758.84
2022-11-24T03:19:32.292Z,98759.78
2022-11-24T03:22:00.078Z,98752.97
2022-11-24T03:24:27.137Z,98755.41
2022-11-24T03:26:54.247Z,98760.47
2022-11-24T03:29:21.617Z,98757.50
2022-11-24T03:31:48.764Z,98756.28
2022-11-24T03:34:15.796Z,98752.13
2022-11-24T03:36:42.778Z,98751.81
2022-11-24T03:39:10.103Z,98743.56
2022-11-24T03:41:37.162Z,98745.72
2022-11-24T03:44:04.398Z,98745.22
2022-11-24T03:46:31.535Z,98752.00
2022-11-24T03:48:58.614Z,98745.91
2022-11-24T03:51:25.706Z,98741.75
2022-11-24T03:53:52.805Z,98743.72
2022-11-24T03:56:21.379Z,98739.81
2022-11-24T03:58:48.443Z,98737.63
2022-11-24T04:01:15.622Z,98733.75
2022-11-24T04:03:42.651Z,98735.22
2022-11-24T04:06:09.780Z,98735.22
2022-11-24T04:08:36.829Z,98730.81
2022-11-24T04:11:03.957Z,98724.03
2022-11-24T04:13:30.979Z,98726.44
2022-11-24T04:15:58.131Z,98725.44
2022-11-24T04:18:25.345Z,98739.25
2022-11-24T04:20:52.767Z,98728.34
2022-11-24T04:23:20.305Z,98735.16
2022-11-24T04:25:47.352Z,98734.66
2022-11-24T04:28:14.732Z,98734.19
2022-11-24T04:30:45.249Z,98734.19
2022-11-24T04:33:13.022Z,98727.16
2022-11-24T04:35:40.178Z,98728.63
2022-11-24T04:38:07.197Z,98725.69
2022-11-24T04:40:34.202Z,98729.81
2022-11-24T04:43:01.267Z,98737.13
2022-11-24T04:45:28.293Z,98739.53
2022-11-24T04:47:55.342Z,98726.63
2022-11-24T04:50:22.735Z,98731.25
2022-11-24T04:52:49.875Z,98733.66
2022-11-24T04:55:16.928Z,98732.94
2022-11-24T04:57:44.422Z,98732.22
2022-11-24T05:00:12.212Z,98725.38
2022-11-24T05:02:39.285Z,98733.16
2022-11-24T05:05:07.629Z,98727.06
2022-11-24T05:07:35.232Z,98728.06
2022-11-24T05:10:21.302Z,98724.88
2022-11-24T05:12:56.856Z,98726.13
2022-11-24T05:15:23.911Z,98731.75
2022-11-24T05:17:50.919Z,98730.53
2022-11-24T05:20:18.543Z,98740.50
2022-11-24T05:22:45.873Z,98733.66
2022-11-24T05:25:13.299Z,98740.50
2022-11-24T05:27:41.097Z,98739.00
2022-11-24T05:30:08.643Z,98730.97
2022-11-24T05:32:35.620Z,98747.69
2022-11-24T05:35:04.800Z,98744.34
2022-11-24T05:37:31.809Z,98737.13
2022-11-24T05:39:58.872Z,98739.81
2022-11-24T05:42:46.181Z,98744.47
2022-11-24T05:45:20.907Z,98741.84
2022-11-24T05:47:49.156Z,98740.63
2022-11-24T05:50:17.927Z,98732.63
2022-11-24T05:52:45.299Z,98738.22
2022-11-24T05:55:14.944Z,98736.03
2022-11-24T05:57:42.282Z,98736.22
2022-11-24T06:00:10.600Z,98731.59
2022-11-24T06:02:38.106Z,98729.63
2022-11-24T06:05:05.563Z,98726.16
2022-11-24T06:07:32.629Z,98724.91
2022-11-24T06:09:59.773Z,98729.31
2022-11-24T06:12:26.781Z,98719.31
2022-11-24T06:14:53.877Z,98727.81
2022-11-24T06:17:20.924Z,98727.81
2022-11-24T06:19:50.367Z,98729.31
2022-11-24T06:22:19.182Z,98727.59
2022-11-24T06:24:47.033Z,98727.66
2022-11-24T06:27:14.649Z,98732.28
2022-11-24T06:29:41.732Z,98729.88
2022-11-24T06:32:09.311Z,98728.94
2022-11-24T06:34:36.727Z,98727.03
2022-11-24T06:37:04.059Z,98727.78
2022-11-24T06:39:31.122Z,98729.50
2022-11-24T06:41:59.016Z,98736.31
2022-11-24T06:44:26.290Z,98740.19
2022-11-24T06:46:53.335Z,98736.31
2022-11-24T06:49:20.343Z,98734.63
2022-11-24T06:51:47.416Z,98739.03
2022-11-24T06:54:18.039Z,98741.47
2022-11-24T06:56:45.089Z,98744.66
2022-11-24T06:59:18.841Z,98745.59
2022-11-24T07:01:46.070Z,98751.91
2022-11-24T07:04:13.297Z,98749.22
2022-11-24T07:06:43.029Z,98752.34
2022-11-24T07:09:11.332Z,98749.44
2022-11-24T07:11:39.083Z,98747.97
2022-11-24T07:14:06.645Z,98751.38
2022-11-24T07:16:34.242Z,98756.91
2022-11-24T07:19:01.334Z,98760.50
2022-11-24T07:21:30.889Z,98762.91
2022-11-24T07:23:58.667Z,98760.25
2022-11-24T07:26:25.754Z,98757.09
2022-11-24T07:28:52.862Z,98768.53
2022-11-24T07:31:22.259Z,98772.63
2022-11-24T07:33:50.405Z,98765.28
2022-11-24T07:36:17.769Z,98774.94
2022-11-24T07:38:46.049Z,98773.88
2022-11-24T07:41:15.096Z,98779.75
2022-11-24T07:43:42.507Z,98783.22
2022-11-24T07:46:12.557Z,98781.31
2022-11-24T07:48:40.021Z,98790.81
2022-11-24T07:51:08.441Z,98790.13
2022-11-24T07:53:36.153Z,98792.38
2022-11-24T07:56:05.197Z,98796.56
2022-11-24T07:58:34.713Z,98796.34
2022-11-24T08:01:13.816Z,98805.56
2022-11-24T08:03:41.489Z,98807.25
2022-11-24T08:06:26.517Z,98810.16
2022-11-24T08:08:55.784Z,98810.69
2022-11-24T08:11:23.047Z,98818.22
2022-11-24T08:13:50.181Z,98813.38
2022-11-24T08:16:19.684Z,98824.31
2022-11-24T08:18:51.736Z,98824.81
2022-11-24T08:21:19.227Z,98823.88
2022-11-24T08:23:46.626Z,98821.94
2022-11-24T08:26:17.820Z,98816.59
2022-11-24T08:28:46.472Z,98824.44
2022-11-24T08:31:15.969Z,98830.75
2022-11-24T08:33:43.442Z,98822.72
2022-11-24T08:36:15.626Z,98830.75
2022-11-24T08:38:43.462Z,98828.53
2022-11-24T08:41:16.218Z,98827.81
2022-11-24T08:43:43.738Z,98830.53
2022-11-24T08:46:13.432Z,98826.16
2022-11-24T08:48:40.933Z,98833.94
2022-11-24T08:51:15.798Z,98822.34
2022-11-24T08:53:43.095Z,98836.94
2022-11-24T08:56:11.104Z,98829.44
2022-11-24T08:58:39.026Z,98832.88
2022-11-24T09:01:11.952Z,98835.81
2022-11-24T09:03:42.350Z,98843.38
2022-11-24T09:06:13.708Z,98837.53
2022-11-24T09:08:41.081Z,98848.97
2022-11-24T09:11:11.427Z,98847.53
2022-11-24T09:13:39.588Z,98844.38
2022-11-24T09:16:11.764Z,98847.28
2022-11-24T09:18:38.913Z,98853.63
2022-11-24T09:21:08.254Z,98843.66
2022-11-24T09:23:36.162Z,98850.50
2022-11-24T09:26:12.749Z,98848.75
2022-11-24T09:28:40.058Z,98847.81
2022-11-24T09:31:09.163Z,98850.28
2022-11-24T09:33:37.016Z,98846.63
2022-11-24T09:36:05.150Z,98849.84
2022-11-24T09:38:32.552Z,98856.88
2022-11-24T09:41:48.903Z,98864.91
2022-11-24T09:44:46.742Z,98869.53
2022-11-24T09:47:36.448Z,98868.94
2022-11-24T09:50:10.620Z,98872.13
2022-11-24T09:52:40.540Z,98875.03
2022-11-24T09:55:25.828Z,98884.28
2022-11-24T09:58:03.489Z,98885.72
2022-11-24T10:00:31.331Z,98891.31
2022-11-24T10:02:58.467Z,98884.03
2022-11-24T10:05:29.738Z,98882.59
2022-11-24T10:08:41.030Z,98871.94
2022-11-24T10:11:15.142Z,98876.31
2022-11-24T10:14:06.375Z,98869.28
2022-11-24T10:16:43.716Z,98868.06
2022-11-24T10:19:41.193Z,98871.50
2022-11-24T10:22:26.514Z,98870.56
2022-11-24T10:25:07.944Z,98867.16
2022-11-24T10:27:40.542Z,98861.56
2022-11-24T10:30:33.951Z,98865.97
2022-11-24T10:33:08.586Z,98860.38
2022-11-24T10:35:46.151Z,98863.53
2022-11-24T10:38:33.135Z,98869.13
2022-11-24T10:41:06.032Z,98860.81
2022-11-24T10:43:33.148Z,98857.38
2022-11-24T10:46:11.038Z,98853.78
2022-11-24T10:48:44.387Z,98854.75
2022-11-24T10:52:01.593Z,98850.38
2022-11-24T10:54:28.734Z,98843.38
2022-11-24T10:56:55.997Z,98843.84
2022-11-24T10:59:30.191Z,98843.84
2022-11-24T11:01:57.490Z,98839.94
2022-11-24T11:04:35.888Z,98847.78
2022-11-24T11:07:09.908Z,98837.53
2022-11-24T11:09:37.224Z,98839.00
2022-11-24T11:12:51.727Z,98835.84
2022-11-24T11:15:29.086Z,98837.28
2022-11-24T11:18:01.378Z,98831.94
2022-11-24T11:20:34.505Z,98827.59
2022-11-24T11:23:14.592Z,98833.16
2022-11-24T11:25:41.645Z,98833.69
2022-11-24T11:28:31.950Z,98831.44
2022-11-24T11:31:21.712Z,98833.16
2022-11-24T11:34:10.648Z,98836.59
2022-11-24T11:36:51.109Z,98834.16
2022-11-24T11:39:18.133Z,98829.25
2022-11-24T11:41:48.506Z,98832.69
2022-11-24T11:44:42.424Z,98830.25
2022-11-24T11:47:22.136Z,98827.31
2022-11-24T11:49:50.081Z,98836.34
2022-11-24T11:52:32.634Z,98832.44
2022-11-24T11:55:28.885Z,98820.50
2022-11-24T11:58:01.687Z,98825.88
2022-11-24T12:00:32.040Z,98827.31
2022-11-24T12:03:43.169Z,98819.78
2022-11-24T12:06:28.335Z,98820.50
2022-11-24T12:09:30.699Z,98814.41
2022-11-24T12:12:00.538Z,98812.00
2022-11-24T12:14:53.505Z,98811.47
2022-11-24T12:17:43.150Z,98811.75
2022-11-24T12:20:42.916Z,98810.50
2022-11-24T12:23:40.728Z,98817.13
2022-11-24T12:26:25.082Z,98804.91
2022-11-24T12:29:15.998Z,98808.06
2022-11-24T12:32:11.035Z,98800.78
2022-11-24T12:35:02.363Z,98808.81
2022-11-24T12:37:41.581Z,98798.09
2022-11-24T12:40:15.999Z,98796.41
2022-11-24T12:42:55.141Z,98799.09
2022-11-24T12:45:51.076Z,98798.09
2022-11-24T12:48:30.293Z,98810.25
2022-11-24T12:51:00.016Z,98799.56
2022-11-24T12:53:33.236Z,98796.63
2022-11-24T12:56:07.873Z,98793.94
2022-11-24T12:58:52.940Z,98793.69
2022-11-24T13:01:40.126Z,98791.53
2022-11-24T13:04:29.215Z,98783.47
2022-11-24T13:07:05.407Z,98780.59
2022-11-24T13:09:32.550Z,98782.78
2022-11-24T13:12:14.089Z,98776.44
2022-11-24T13:14:46.407Z,98781.28
2022-11-24T13:20:33.774Z,98776.09
2022-11-24T13:23:03.778Z,98770.72
2022-11-24T13:25:35.565Z,98776.53
2022-11-24T13:28:06.901Z,98772.19
2022-11-24T13:30:33.899Z,98772.19
2022-11-24T13:33:16.563Z,98767.81
2022-11-24T13:36:02.507Z,98762.91
2022-11-24T13:38:52.991Z,98762.41
2022-11-24T13:41:32.060Z,98767.00
2022-11-24T13:44:18.388Z,98767.72
2022-11-24T13:47:06.773Z,98765.28
2022-11-24T13:49:38.900Z,98760.91
2022-11-24T13:52:36.790Z,98760.44
2022-11-24T13:55:20.023Z,98749.00
2022-11-24T13:58:25.296Z,98743.56
2022-11-24T14:01:12.559Z,98749.94
2022-11-24T14:04:21.673Z,98740.47
2022-11-24T14:06:46.583Z,98736.09
2022-11-24T14:09:21.871Z,98742.13
2022-11-24T14:12:20.506Z,98728.28
2022-11-24T14:14:49.686Z,98720.50
2022-11-24T14:17:28.893Z,98720.28
2022-11-24T14:19:57.727Z,98723.66
2022-11-24T14:22:34.957Z,98718.03
2022-11-24T14:25:03.042Z,98710.50
2022-11-24T14:27:36.406Z,98705.84
2022-11-24T14:30:15.768Z,98695.28
2022-11-24T14:32:57.299Z,98685.94
2022-11-24T14:35:32.276Z,98665.72
2022-11-24T14:38:03.568Z,98660.19
2022-11-24T14:40:43.663Z,98659.88
2022-11-24T14:43:32.142Z,98651.28
2022-11-24T14:46:07.835Z,98651.75
2022-11-24T14:48:40.126Z,98655.84
2022-11-24T14:51:22.485Z,98660.19
2022-11-24T14:53:52.755Z,98662.25
2022-11-24T14:56:24.189Z,98656.44
2022-11-24T14:58:51.470Z,98650.31
2022-11-24T15:01:32.986Z,98653.69
2022-11-24T15:04:26.630Z,98653.09
2022-11-24T15:07:17.263Z,98656.69
2022-11-24T15:09:59.770Z,98654.88
2022-11-24T15:12:48.607Z,98660.81
2022-11-24T15:15:15.719Z,98658.44
2022-11-24T15:17:55.533Z,98658.00
2022-11-24T15:20:45.822Z,98663.66
2022-11-24T15:23:30.239Z,98666.59
2022-11-24T15:26:03.140Z,98668.75
2022-11-24T15:28:31.414Z,98668.97
2022-11-24T15:31:07.043Z,98662.63
2022-11-24T15:33:34.045Z,98672.38
2022-11-24T15:36:01.294Z,98661.41
2022-11-24T15:38:28.856Z,98666.56
2022-11-24T15:40:58.572Z,98663.88
2022-11-24T15:43:37.331Z,98663.88
2022-11-24T15:46:04.889Z,98651.69
2022-11-24T15:48:32.326Z,98655.63
2022-11-24T15:51:02.692Z,98649.97
2022-11-24T15:53:44.773Z,98656.38
2022-11-24T15:56:22.637Z,98653.94
2022-11-24T15:58:49.671Z,98660.72
2022-11-24T16:01:16.935Z,98649.75
2022-11-24T16:03:47.420Z,98649.31
2022-11-24T16:06:24.732Z,98653.19
2022-11-24T16:08:54.232Z,98650.50
2022-11-24T16:11:22.096Z,98650.78
2022-11-24T16:13:52.880Z,98645.41
2022-11-24T16:16:22.908Z,98652.25
2022-11-24T16:18:50.041Z,98658.59
2022-11-24T16:21:17.130Z,98652.72
2022-11-24T16:23:44.362Z,98667.09
2022-11-24T16:26:11.400Z,98676.84
2022-11-24T16:28:38.405Z,98669.34
2022-11-24T16:31:05.576Z,98682.53
2022-11-24T16:33:32.678Z,98678.91
2022-11-24T16:35:59.649Z,98677.72
2022-11-24T16:38:26.668Z,98672.09
2022-11-24T16:40:57.336Z,98678.69
2022-11-24T16:43:27.465Z,98671.88
2022-11-24T16:46:07.307Z,98668.19
2022-11-24T16:48:37.443Z,98676.47
2022-11-24T16:51:10.341Z,98675.72
2022-11-24T16:53:38.235Z,98677.47
2022-11-24T16:56:05.558Z,98670.63
2022-11-24T16:58:32.922Z,98672.09
2022-11-24T17:01:13.807Z,98664.81
2022-11-24T17:03:41.478Z,98664.56
2022-11-24T17:06:13.533Z,98663.59
2022-11-24T17:08:41.617Z,98657.75
2022-11-24T17:11:16.861Z,98660.41
2022-11-24T17:13:45.889Z,98653.88
2022-11-24T17:16:18.729Z,98664.56
2022-11-24T17:18:46.098Z,98663.88
2022-11-24T17:21:18.999Z,98660.47
2022-11-24T17:23:46.674Z,98673.41
2022-11-24T17:26:17.898Z,98662.69
2022-11-24T17:28:45.401Z,98669.75
2022-11-24T17:31:24.345Z,98673.19
2022-11-24T17:33:55.342Z,98674.41
2022-11-24T17:36:23.252Z,98680.00
2022-11-24T17:38:51.010Z,98682.22
2022-11-24T17:41:19.281Z,98682.22
2022-11-24T17:43:51.914Z,98695.34
2022-11-24T17:46:19.982Z,98686.59
2022-11-24T17:48:47.398Z,98683.91
2022-11-24T17:51:17.613Z,98688.53
2022-11-24T17:53:47.373Z,98690.00
2022-11-24T17:56:17.217Z,98701.69
2022-11-24T17:58:45.281Z,98704.13
2022-11-24T18:01:14.003Z,98710.22
2022-11-24T18:03:41.921Z,98720.69
2022-11-24T18:06:13.813Z,98729.91
2022-11-24T18:08:43.364Z,98726.75
2022-11-24T18:11:27.295Z,98736.47
2022-11-24T18:14:00.933Z,98744.28
2022-11-24T18:16:30.695Z,98746.94
2022-11-24T18:19:10.771Z,98754.47
2022-11-24T18:21:46.848Z,98770.28
2022-11-24T18:24:14.746Z,98778.06
2022-11-24T18:26:43.939Z,98779.28
2022-11-24T18:29:11.778Z,98780.97
2022-11-24T18:31:39.235Z,98789.28
2022-11-24T18:34:06.728Z,98794.16
2022-11-24T18:36:34.882Z,98797.31
2022-11-24T18:39:07.480Z,98803.16
2022-11-24T18:41:34.761Z,98794.16
2022-11-24T18:44:08.338Z,98794.41
2022-11-24T18:46:35.397Z,98788.81
2022-11-24T18:49:02.488Z,98784.44
2022-11-24T18:51:30.332Z,98778.59
2022-11-24T18:53:58.405Z,98788.81
2022-11-24T18:56:26.498Z,98788.81
2022-11-24T18:58:55.053Z,98789.06
2022-11-24T19:01:25.416Z,98793.41
2022-11-24T19:03:55.698Z,98785.13
2022-11-24T19:06:24.283Z,98790.47
2022-11-24T19:08:54.019Z,98782.44
2022-11-24T19:11:35.838Z,98787.31
2022-11-24T19:14:05.244Z,98783.19
2022-11-24T19:16:33.212Z,98789.28
2022-11-24T19:19:01.937Z,98795.81
2022-11-24T19:21:34.530Z,98792.19
2022-11-24T19:24:05.479Z,98805.34
2022-11-24T19:26:35.385Z,98798.78
2022-11-24T19:29:03.340Z,98806.56
2022-11-24T19:31:31.100Z,98806.81
2022-11-24T19:34:00.309Z,98815.84
2022-11-24T19:36:28.008Z,98822.41
2022-11-24T19:38:57.492Z,98821.16
2022-11-24T19:41:30.805Z,98820.94
2022-11-24T19:43:59.066Z,98820.47
2022-11-24T19:46:29.863Z,98818.75
2022-11-24T19:49:00.187Z,98831.44
2022-11-24T19:51:33.438Z,98833.13
2022-11-24T19:54:01.150Z,98834.31
2022-11-24T19:56:31.389Z,98835.53
2022-11-24T19:58:58.562Z,98845.25
2022-11-24T20:01:33.945Z,98846.50
2022-11-24T20:04:04.488Z,98842.81
2022-11-24T20:06:35.193Z,98845.00
2022-11-24T20:09:02.386Z,98852.53
2022-11-24T20:11:30.363Z,98845.97
2022-11-24T20:13:58.249Z,98852.06
2022-11-24T20:16:30.256Z,98848.19
2022-11-24T20:19:02.359Z,98852.09
2022-11-24T20:21:32.958Z,98845.50
2022-11-24T20:24:12.761Z,98852.31
2022-11-24T20:26:43.234Z,98850.13
2022-11-24T20:29:12.495Z,98851.59
2022-11-24T20:31:43.882Z,98846.25
2022-11-24T20:34:11.913Z,98846.00
2022-11-24T20:36:42.085Z,98841.63
2022-11-24T20:39:19.643Z,98862.31
2022-11-24T20:41:47.790Z,98862.31
2022-11-24T20:44:16.971Z,98857.69
2022-11-24T20:46:46.021Z,98859.91
2022-11-24T20:49:16.923Z,98860.84
2022-11-24T20:51:47.322Z,98857.19
2022-11-24T20:54:16.688Z,98861.09
2022-11-24T20:56:44.840Z,98864.97
2022-11-24T20:59:14.573Z,98868.84
2022-11-24T21:01:45.648Z,98869.59
2022-11-24T21:04:17.192Z,98869.09
2022-11-24T21:06:44.380Z,98875.66
2022-11-24T21:09:11.510Z,98889.75
2022-11-24T21:11:39.424Z,98899.00
2022-11-24T21:14:07.558Z,98900.94
2022-11-24T21:16:36.926Z,98897.34
2022-11-24T21:19:09.781Z,98898.56
2022-11-24T21:21:38.148Z,98893.91
2022-11-24T21:24:12.580Z,98895.13
2022-11-24T21:26:41.187Z,98887.09
2022-11-24T21:29:08.975Z,98895.41
2022-11-24T21:31:37.401Z,98893.91
2022-11-24T21:34:06.186Z,98892.69
2022-11-24T21:36:35.197Z,98901.22
2022-11-24T21:39:03.712Z,98896.59
2022-11-24T21:41:33.560Z,98902.19
2022-11-24T21:44:01.072Z,98897.59
2022-11-24T21:46:32.785Z,98894.16
2022-11-24T21:48:59.948Z,98889.56
2022-11-24T21:51:27.110Z,98883.66
2022-11-24T21:53:54.802Z,98888.06
2022-11-24T21:56:23.603Z,98879.56
2022-11-24T21:58:53.147Z,98880.31
2022-11-24T22:01:22.302Z,98885.38
2022-11-24T22:03:50.095Z,98886.63
2022-11-24T22:06:19.488Z,98892.00
2022-11-24T22:08:49.823Z,98885.16
2022-11-24T22:11:20.243Z,98894.13
2022-11-24T22:13:48.034Z,98892.16
2022-11-24T22:16:17.983Z,98892.59
2022-11-24T22:18:45.706Z,98900.38
2022-11-24T22:21:24.468Z,98903.50
2022-11-24T22:23:52.854Z,98911.53
2022-11-24T22:26:22.286Z,98916.13
2022-11-24T22:28:49.852Z,98920.94
2022-11-24T22:31:19.731Z,98918.97
2022-11-24T22:33:47.406Z,98916.28
2022-11-24T22:36:16.274Z,98913.81
2022-11-24T22:38:43.735Z,98907.75
2022-11-24T22:41:19.636Z,98901.88
2022-11-24T22:43:47.825Z,98895.06
2022-11-24T22:46:17.346Z,98884.63
2022-11-24T22:48:45.776Z,98884.88
2022-11-24T22:51:15.312Z,98884.66
2022-11-24T22:53:46.572Z,98877.34
2022-11-24T22:56:13.585Z,98869.31
2022-11-24T22:58:40.974Z,98863.03
2022-11-24T23:01:19.409Z,98861.81
2022-11-24T23:03:47.143Z,98867.34
2022-11-24T23:06:20.681Z,98860.56
2022-11-24T23:08:47.770Z,98863.47
2022-11-24T23:11:18.016Z,98870.53
2022-11-24T23:13:45.366Z,98872.28
2022-11-24T23:16:17.094Z,98871.50
2022-11-24T23:18:47.789Z,98866.38
2022-11-24T23:21:27.423Z,98874.63
2022-11-24T23:23:55.231Z,98880.19
2022-11-24T23:26:24.743Z,98880.41
2022-11-24T23:28:51.867Z,98872.88
2022-11-24T23:31:22.221Z,98859.00
2022-11-24T23:33:49.272Z,98853.09
2022-11-24T23:36:18.270Z,98852.13
2022-11-24T23:38:46.097Z,98852.13
2022-11-24T23:41:18.314Z,98851.19
2022-11-24T23:43:45.354Z,98847.31
2022-11-24T23:46:17.671Z,98839.50
2022-11-24T23:48:44.899Z,98840.28
2022-11-24T23:51:18.492Z,98844.47
2022-11-24T23:53:45.902Z,98845.22
2022-11-24T23:56:17.905Z,98841.34
2022-11-24T23:58:45.652Z,98844.31
